Eko 2 — SY9957 — position and weather

sailwx.info

Track history (hours):
 
Tides and Currents Weather Stations Pressure Air Temp Water Temp Dewpoint Dewpoint Depression Visibility Wind Speed Wind Dir Waves Ship Positions

Eko 2

Last reported at 2015-May-24 01:31 UTC. Time now 2015-May-24 03:16 UTC.
Position N 35°53' E 027°16'.

Length 89 m; draft 4.4 m.

Type: Ship (hazmat cat A). MMSI: 240827000.

Date/timePositionNaut miles runAvg speedWind from/ knotsBaromVisibWave heightAir tempDewpointWater temp
2015-May-24 01:31N 35°53' E 027°16'4110.1
2015-May-23 21:24N 36°25' E 026°44'1910.5
2015-May-23 19:33N 36°40' E 026°28'1110.8
2015-May-23 18:33N 36°48' E 026°19'1110.7
2015-May-23 17:33N 36°56' E 026°10'1210.5
2015-May-23 16:25N 37°04' E 025°59'1010.5
2015-May-23 15:28N 37°09' E 025°49'1010.6
2015-May-23 14:33N 37°12' E 025°37'9 9.2
2015-May-23 13:33N 37°10' E 025°26'5 5.1
2015-May-23 12:32N 37°06' E 025°22'0 0.0
2015-May-23 11:32N 37°06' E 025°22'0 0.0
2015-May-23 10:32N 37°06' E 025°22'0 0.0
2015-May-23 09:32N 37°06' E 025°22'0 0.1
2015-May-23 08:33N 37°06' E 025°22'0 0.1
2015-May-23 07:33N 37°06' E 025°22'0 0.0
2015-May-23 06:33N 37°06' E 025°22'1 0.6
2015-May-23 05:33N 37°06' E 025°22'0 0.0
2015-May-23 04:32N 37°06' E 025°22'0 0.0
2015-May-23 03:26N 37°06' E 025°22'0 0.0
2015-May-23 02:33N 37°06' E 025°22'0 0.0
2015-May-23 01:33N 37°06' E 025°22'0 0.0
2015-May-23 00:33N 37°06' E 025°22'0 0.0
2015-May-22 23:33N 37°06' E 025°22'0 0.0
2015-May-22 22:33N 37°06' E 025°22'0 0.0
2015-May-22 21:33N 37°06' E 025°22'9 8.8
2015-May-22 20:33N 37°15' E 025°19'1211.6
2015-May-22 19:33N 37°26' E 025°17'2 2.4
2015-May-22 18:33N 37°28' E 025°20'0 0.0
2015-May-22 17:33N 37°28' E 025°20'0 0.0
2015-May-22 16:33N 37°28' E 025°20'0 0.0
2015-May-22 15:33N 37°28' E 025°20'0 0.0
2015-May-22 14:33N 37°28' E 025°20'0 0.0
2015-May-22 13:33N 37°28' E 025°20'0 0.0
2015-May-22 12:33N 37°28' E 025°20'0 0.0
2015-May-22 11:33N 37°28' E 025°20'0 0.0
2015-May-22 10:33N 37°28' E 025°20'0 0.0
2015-May-22 09:33N 37°28' E 025°20'0 0.0
2015-May-22 08:33N 37°28' E 025°20'0 0.0
2015-May-22 07:33N 37°28' E 025°20'0 0.0
2015-May-22 06:33N 37°28' E 025°20'0 0.0
2015-May-22 05:33N 37°28' E 025°20'3 3.4
2015-May-22 04:33N 37°25' E 025°17'1111.1
2015-May-22 03:33N 37°14' E 025°19'1111.1
2015-May-22 02:33N 37°03' E 025°18'2211.0
2015-May-22 00:31N 36°41' E 025°14'1111.1
2015-May-21 23:33N 36°31' E 025°19'9 9.1
2015-May-21 22:33N 36°23' E 025°26'1 1.0
2015-May-21 21:33N 36°23' E 025°25'1 0.9
2015-May-21 20:28N 36°23' E 025°26'0 0.0
2015-May-21 19:31N 36°23' E 025°26'0 0.0
2015-May-21 18:31N 36°23' E 025°26'0 0.0
2015-May-21 17:31N 36°23' E 025°26'0 0.0
2015-May-21 16:25N 36°23' E 025°26'0 0.0
2015-May-21 15:31N 36°23' E 025°26'0 0.0
2015-May-21 14:31N 36°23' E 025°26'0 0.0
2015-May-21 13:22N 36°23' E 025°26'0 0.0
2015-May-21 12:16N 36°23' E 025°26'0 0.0
2015-May-21 10:31N 36°23' E 025°26'0 0.0
2015-May-21 09:28N 36°23' E 025°26'0 0.0
2015-May-21 08:07N 36°23' E 025°26'0 0.0
2015-May-21 07:28N 36°23' E 025°26'0 0.0
2015-May-21 06:19N 36°23' E 025°26'0 0.0
2015-May-21 05:31N 36°23' E 025°26'0 0.0
2015-May-21 04:25N 36°23' E 025°26'0 0.0
2015-May-21 03:28N 36°23' E 025°26'0 0.0
2015-May-21 02:31N 36°23' E 025°26'0 0.0
2015-May-21 01:31N 36°23' E 025°26'0 0.0
2015-May-21 00:28N 36°23' E 025°26'0 0.0
2015-May-20 23:13N 36°23' E 025°26'0 0.0
2015-May-20 22:31N 36°23' E 025°26'0 0.0
2015-May-20 21:13N 36°23' E 025°26'0 0.0
2015-May-20 20:25N 36°23' E 025°26'0 0.0
2015-May-20 18:22N 36°23' E 025°26'0 0.0
2015-May-20 17:25N 36°23' E 025°26'0 0.0
2015-May-20 16:28N 36°23' E 025°26'0 0.0
2015-May-20 15:22N 36°23' E 025°26'0 0.0
2015-May-20 14:25N 36°23' E 025°26'0 0.0
2015-May-20 13:31N 36°23' E 025°26'3 2.8
2015-May-20 12:33N 36°23' E 025°23'1010.6
2015-May-20 11:34N 36°26' E 025°10'1211.3
2015-May-20 10:27N 36°32' E 024°57'78 4.4
2015-May-19 16:31N 37°30' E 023°50'1111.7
2015-May-19 15:33N 37°39' E 023°42'1211.7
2015-May-19 14:33N 37°50' E 023°36'6 5.7
2015-May-19 13:31N 37°56' E 023°34'0 0.0
2015-May-19 12:31N 37°56' E 023°34'0 0.0
2015-May-19 11:31N 37°56' E 023°34'0 0.1
2015-May-19 10:31N 37°56' E 023°34'0 0.0
2015-May-19 09:31N 37°56' E 023°34'0 0.0
2015-May-19 08:31N 37°56' E 023°34'0 0.0
2015-May-19 07:25N 37°56' E 023°34'2 1.8
2015-May-19 06:33N 37°57' E 023°34'5 3.7
2015-May-19 05:15N 38°02' E 023°32'0 0.0
2015-May-19 04:30N 38°02' E 023°32'0 0.0
2015-May-19 03:15N 38°02' E 023°32'0 0.0
2015-May-19 02:33N 38°02' E 023°32'0 0.0
2015-May-19 01:33N 38°02' E 023°32'0 0.0
2015-May-19 00:21N 38°02' E 023°32'0 0.0
2015-May-18 23:33N 38°02' E 023°32'0 0.0
2015-May-18 22:27N 38°02' E 023°32'0 0.0
2015-May-18 21:27N 38°02' E 023°32'0 0.0
2015-May-18 20:33N 38°02' E 023°32'0 0.0
2015-May-18 19:33N 38°02' E 023°32'0 0.0
2015-May-18 18:21N 38°02' E 023°32'0 0.0
2015-May-18 17:21N 38°02' E 023°32'0 0.0
2015-May-18 16:33N 38°02' E 023°32'0 0.0
2015-May-18 15:27N 38°02' E 023°32'0 0.0
2015-May-18 14:27N 38°02' E 023°32'0 0.0
2015-May-18 13:15N 38°02' E 023°32'0 0.0
2015-May-18 12:27N 38°02' E 023°32'0 0.0
2015-May-18 11:15N 38°02' E 023°32'0 0.0
2015-May-18 10:33N 38°02' E 023°32'0 0.0
2015-May-18 09:09N 38°02' E 023°32'0 0.0
2015-May-18 08:30N 38°02' E 023°32'0 0.0
2015-May-18 07:33N 38°02' E 023°32'0 0.0
2015-May-18 06:33N 38°02' E 023°32'0 0.0
2015-May-18 05:33N 38°02' E 023°32'0 0.0
2015-May-18 04:33N 38°02' E 023°32'0 0.0
2015-May-18 03:33N 38°02' E 023°32'0 0.0
2015-May-18 02:33N 38°02' E 023°32'0 0.0
2015-May-18 01:33N 38°02' E 023°32'0 0.0
2015-May-18 00:33N 38°02' E 023°32'0 0.0
2015-May-17 23:33N 38°02' E 023°32'0 0.0
2015-May-17 22:33N 38°02' E 023°32'3 2.0
2015-May-17 21:15N 38°02' E 023°36'0 0.0
2015-May-17 20:27N 38°02' E 023°36'0 0.0
2015-May-17 19:33N 38°02' E 023°36'0 0.0
2015-May-17 18:15N 38°02' E 023°36'0 0.0
2015-May-17 17:33N 38°02' E 023°36'0 0.0
2015-May-17 16:33N 38°02' E 023°36'0 0.0
2015-May-17 15:21N 38°02' E 023°36'0 0.0
2015-May-17 13:31N 38°02' E 023°36'3 2.5
2015-May-17 12:30N 38°02' E 023°32'0 0.0
2015-May-17 11:27N 38°02' E 023°32'0 0.0
2015-May-17 10:30N 38°02' E 023°32'0 0.0
2015-May-17 09:21N 38°02' E 023°32'0 0.0
2015-May-17 08:33N 38°02' E 023°32'3 2.8
2015-May-17 07:33N 37°59' E 023°33'9 8.6
2015-May-17 06:34N 37°52' E 023°38'1010.2
2015-May-17 05:33N 37°43' E 023°44'12 9.5
2015-May-17 04:17N 37°36' E 023°57'37 9.7
2015-May-17 00:26N 37°31' E 024°44'9 9.7
2015-May-16 23:30N 37°32' E 024°55'9 9.8
2015-May-16 22:33N 37°30' E 025°07'10 9.8
2015-May-16 21:33N 37°28' E 025°19'0 0.3
2015-May-16 20:32N 37°28' E 025°19'0 0.0
2015-May-16 19:32N 37°28' E 025°19'0 0.0
2015-May-16 18:32N 37°28' E 025°19'0 0.0
2015-May-16 17:32N 37°28' E 025°19'0 0.0
2015-May-16 16:29N 37°28' E 025°19'0 0.0
2015-May-16 15:32N 37°28' E 025°19'0 0.0
2015-May-16 14:29N 37°28' E 025°19'0 0.0
2015-May-16 13:32N 37°28' E 025°19'6 6.3
2015-May-16 12:33N 37°22' E 025°17'1010.3
2015-May-16 11:33N 37°13' E 025°11'8 3.5
2015-May-16 09:20N 37°05' E 025°09'0 0.4
2015-May-16 08:29N 37°06' E 025°08'0 0.0
2015-May-16 07:09N 37°06' E 025°09'0 0.0
2015-May-15 21:05N 37°05' E 025°09'4 5.4
2015-May-15 20:25N 37°08' E 025°10'8 9.0
2015-May-15 19:33N 37°11' E 025°20'10 9.5
2015-May-15 18:33N 37°13' E 025°31'9 9.2
2015-May-15 17:34N 37°06' E 025°39'10 9.6
2015-May-15 16:29N 36°57' E 025°45'3 0.2
2015-May-14 22:34N 36°54' E 025°46'11 9.2
2015-May-14 21:23N 36°49' E 025°34'17 2.5
2015-May-14 14:32N 36°38' E 025°17'10 9.8
2015-May-14 13:33N 36°29' E 025°21'7 7.5
2015-May-14 12:33N 36°23' E 025°26'0 0.0
2015-May-14 11:33N 36°23' E 025°26'0 0.0
2015-May-14 10:33N 36°23' E 025°26'0 0.0
2015-May-14 09:33N 36°23' E 025°26'0 0.0
2015-May-14 08:33N 36°23' E 025°26'0 0.0
2015-May-14 07:33N 36°23' E 025°26'0 0.0
2015-May-14 06:33N 36°23' E 025°26'0 0.0
2015-May-14 05:33N 36°23' E 025°26'0 0.0
2015-May-14 04:33N 36°23' E 025°26'0 0.0
2015-May-14 03:33N 36°23' E 025°26'0 0.0
2015-May-14 02:27N 36°23' E 025°26'0 0.0
2015-May-14 01:33N 36°23' E 025°26'  
Track history (hours):
 
Tides and Currents Weather Stations Pressure Air Temp Water Temp Dewpoint Dewpoint Depression Visibility Wind Speed Wind Dir Waves Ship Positions

Eko 2

Last reported at 2015-May-24 01:31 UTC. Time now 2015-May-24 03:16 UTC.
Position N 35°53' E 027°16'.

Length 89 m; draft 4.4 m.

Type: Ship (hazmat cat A). MMSI: 240827000.

Date/timePositionNaut miles runAvg speedWind from/ knotsBaromVisibWave heightAir tempDewpointWater temp
2015-May-24 01:31N 35°53' E 027°16'4110.1
2015-May-23 21:24N 36°25' E 026°44'1910.5
2015-May-23 19:33N 36°40' E 026°28'1110.8
2015-May-23 18:33N 36°48' E 026°19'1110.7
2015-May-23 17:33N 36°56' E 026°10'1210.5
2015-May-23 16:25N 37°04' E 025°59'1010.5
2015-May-23 15:28N 37°09' E 025°49'1010.6
2015-May-23 14:33N 37°12' E 025°37'9 9.2
2015-May-23 13:33N 37°10' E 025°26'5 5.1
2015-May-23 12:32N 37°06' E 025°22'0 0.0
2015-May-23 11:32N 37°06' E 025°22'0 0.0
2015-May-23 10:32N 37°06' E 025°22'0 0.0
2015-May-23 09:32N 37°06' E 025°22'0 0.1
2015-May-23 08:33N 37°06' E 025°22'0 0.1
2015-May-23 07:33N 37°06' E 025°22'0 0.0
2015-May-23 06:33N 37°06' E 025°22'1 0.6
2015-May-23 05:33N 37°06' E 025°22'0 0.0
2015-May-23 04:32N 37°06' E 025°22'0 0.0
2015-May-23 03:26N 37°06' E 025°22'0 0.0
2015-May-23 02:33N 37°06' E 025°22'0 0.0
2015-May-23 01:33N 37°06' E 025°22'0 0.0
2015-May-23 00:33N 37°06' E 025°22'0 0.0
2015-May-22 23:33N 37°06' E 025°22'0 0.0
2015-May-22 22:33N 37°06' E 025°22'0 0.0
2015-May-22 21:33N 37°06' E 025°22'9 8.8
2015-May-22 20:33N 37°15' E 025°19'1211.6
2015-May-22 19:33N 37°26' E 025°17'2 2.4
2015-May-22 18:33N 37°28' E 025°20'0 0.0
2015-May-22 17:33N 37°28' E 025°20'0 0.0
2015-May-22 16:33N 37°28' E 025°20'0 0.0
2015-May-22 15:33N 37°28' E 025°20'0 0.0
2015-May-22 14:33N 37°28' E 025°20'0 0.0
2015-May-22 13:33N 37°28' E 025°20'0 0.0
2015-May-22 12:33N 37°28' E 025°20'0 0.0
2015-May-22 11:33N 37°28' E 025°20'0 0.0
2015-May-22 10:33N 37°28' E 025°20'0 0.0
2015-May-22 09:33N 37°28' E 025°20'0 0.0
2015-May-22 08:33N 37°28' E 025°20'0 0.0
2015-May-22 07:33N 37°28' E 025°20'0 0.0
2015-May-22 06:33N 37°28' E 025°20'0 0.0
2015-May-22 05:33N 37°28' E 025°20'3 3.4
2015-May-22 04:33N 37°25' E 025°17'1111.1
2015-May-22 03:33N 37°14' E 025°19'1111.1
2015-May-22 02:33N 37°03' E 025°18'2211.0
2015-May-22 00:31N 36°41' E 025°14'1111.1
2015-May-21 23:33N 36°31' E 025°19'9 9.1
2015-May-21 22:33N 36°23' E 025°26'1 1.0
2015-May-21 21:33N 36°23' E 025°25'1 0.9
2015-May-21 20:28N 36°23' E 025°26'0 0.0
2015-May-21 19:31N 36°23' E 025°26'0 0.0
2015-May-21 18:31N 36°23' E 025°26'0 0.0
2015-May-21 17:31N 36°23' E 025°26'0 0.0
2015-May-21 16:25N 36°23' E 025°26'0 0.0
2015-May-21 15:31N 36°23' E 025°26'0 0.0
2015-May-21 14:31N 36°23' E 025°26'0 0.0
2015-May-21 13:22N 36°23' E 025°26'0 0.0
2015-May-21 12:16N 36°23' E 025°26'0 0.0
2015-May-21 10:31N 36°23' E 025°26'0 0.0
2015-May-21 09:28N 36°23' E 025°26'0 0.0
2015-May-21 08:07N 36°23' E 025°26'0 0.0
2015-May-21 07:28N 36°23' E 025°26'0 0.0
2015-May-21 06:19N 36°23' E 025°26'0 0.0
2015-May-21 05:31N 36°23' E 025°26'0 0.0
2015-May-21 04:25N 36°23' E 025°26'0 0.0
2015-May-21 03:28N 36°23' E 025°26'0 0.0
2015-May-21 02:31N 36°23' E 025°26'0 0.0
2015-May-21 01:31N 36°23' E 025°26'0 0.0
2015-May-21 00:28N 36°23' E 025°26'0 0.0
2015-May-20 23:13N 36°23' E 025°26'0 0.0
2015-May-20 22:31N 36°23' E 025°26'0 0.0
2015-May-20 21:13N 36°23' E 025°26'0 0.0
2015-May-20 20:25N 36°23' E 025°26'0 0.0
2015-May-20 18:22N 36°23' E 025°26'0 0.0
2015-May-20 17:25N 36°23' E 025°26'0 0.0
2015-May-20 16:28N 36°23' E 025°26'0 0.0
2015-May-20 15:22N 36°23' E 025°26'0 0.0
2015-May-20 14:25N 36°23' E 025°26'0 0.0
2015-May-20 13:31N 36°23' E 025°26'3 2.8
2015-May-20 12:33N 36°23' E 025°23'1010.6
2015-May-20 11:34N 36°26' E 025°10'1211.3
2015-May-20 10:27N 36°32' E 024°57'78 4.4
2015-May-19 16:31N 37°30' E 023°50'1111.7
2015-May-19 15:33N 37°39' E 023°42'1211.7
2015-May-19 14:33N 37°50' E 023°36'6 5.7
2015-May-19 13:31N 37°56' E 023°34'0 0.0
2015-May-19 12:31N 37°56' E 023°34'0 0.0
2015-May-19 11:31N 37°56' E 023°34'0 0.1
2015-May-19 10:31N 37°56' E 023°34'0 0.0
2015-May-19 09:31N 37°56' E 023°34'0 0.0
2015-May-19 08:31N 37°56' E 023°34'0 0.0
2015-May-19 07:25N 37°56' E 023°34'2 1.8
2015-May-19 06:33N 37°57' E 023°34'5 3.7
2015-May-19 05:15N 38°02' E 023°32'0 0.0
2015-May-19 04:30N 38°02' E 023°32'0 0.0
2015-May-19 03:15N 38°02' E 023°32'0 0.0
2015-May-19 02:33N 38°02' E 023°32'0 0.0
2015-May-19 01:33N 38°02' E 023°32'0 0.0
2015-May-19 00:21N 38°02' E 023°32'0 0.0
2015-May-18 23:33N 38°02' E 023°32'0 0.0
2015-May-18 22:27N 38°02' E 023°32'0 0.0
2015-May-18 21:27N 38°02' E 023°32'0 0.0
2015-May-18 20:33N 38°02' E 023°32'0 0.0
2015-May-18 19:33N 38°02' E 023°32'0 0.0
2015-May-18 18:21N 38°02' E 023°32'0 0.0
2015-May-18 17:21N 38°02' E 023°32'0 0.0
2015-May-18 16:33N 38°02' E 023°32'0 0.0
2015-May-18 15:27N 38°02' E 023°32'0 0.0
2015-May-18 14:27N 38°02' E 023°32'0 0.0
2015-May-18 13:15N 38°02' E 023°32'0 0.0
2015-May-18 12:27N 38°02' E 023°32'0 0.0
2015-May-18 11:15N 38°02' E 023°32'0 0.0
2015-May-18 10:33N 38°02' E 023°32'0 0.0
2015-May-18 09:09N 38°02' E 023°32'0 0.0
2015-May-18 08:30N 38°02' E 023°32'0 0.0
2015-May-18 07:33N 38°02' E 023°32'0 0.0
2015-May-18 06:33N 38°02' E 023°32'0 0.0
2015-May-18 05:33N 38°02' E 023°32'0 0.0
2015-May-18 04:33N 38°02' E 023°32'0 0.0
2015-May-18 03:33N 38°02' E 023°32'0 0.0
2015-May-18 02:33N 38°02' E 023°32'0 0.0
2015-May-18 01:33N 38°02' E 023°32'0 0.0
2015-May-18 00:33N 38°02' E 023°32'0 0.0
2015-May-17 23:33N 38°02' E 023°32'0 0.0
2015-May-17 22:33N 38°02' E 023°32'3 2.0
2015-May-17 21:15N 38°02' E 023°36'0 0.0
2015-May-17 20:27N 38°02' E 023°36'0 0.0
2015-May-17 19:33N 38°02' E 023°36'0 0.0
2015-May-17 18:15N 38°02' E 023°36'0 0.0
2015-May-17 17:33N 38°02' E 023°36'0 0.0
2015-May-17 16:33N 38°02' E 023°36'0 0.0
2015-May-17 15:21N 38°02' E 023°36'0 0.0
2015-May-17 13:31N 38°02' E 023°36'3 2.5
2015-May-17 12:30N 38°02' E 023°32'0 0.0
2015-May-17 11:27N 38°02' E 023°32'0 0.0
2015-May-17 10:30N 38°02' E 023°32'0 0.0
2015-May-17 09:21N 38°02' E 023°32'0 0.0
2015-May-17 08:33N 38°02' E 023°32'3 2.8
2015-May-17 07:33N 37°59' E 023°33'9 8.6
2015-May-17 06:34N 37°52' E 023°38'1010.2
2015-May-17 05:33N 37°43' E 023°44'12 9.5
2015-May-17 04:17N 37°36' E 023°57'37 9.7
2015-May-17 00:26N 37°31' E 024°44'9 9.7
2015-May-16 23:30N 37°32' E 024°55'9 9.8
2015-May-16 22:33N 37°30' E 025°07'10 9.8
2015-May-16 21:33N 37°28' E 025°19'0 0.3
2015-May-16 20:32N 37°28' E 025°19'0 0.0
2015-May-16 19:32N 37°28' E 025°19'0 0.0
2015-May-16 18:32N 37°28' E 025°19'0 0.0
2015-May-16 17:32N 37°28' E 025°19'0 0.0
2015-May-16 16:29N 37°28' E 025°19'0 0.0
2015-May-16 15:32N 37°28' E 025°19'0 0.0
2015-May-16 14:29N 37°28' E 025°19'0 0.0
2015-May-16 13:32N 37°28' E 025°19'6 6.3
2015-May-16 12:33N 37°22' E 025°17'1010.3
2015-May-16 11:33N 37°13' E 025°11'8 3.5
2015-May-16 09:20N 37°05' E 025°09'0 0.4
2015-May-16 08:29N 37°06' E 025°08'0 0.0
2015-May-16 07:09N 37°06' E 025°09'0 0.0
2015-May-15 21:05N 37°05' E 025°09'4 5.4
2015-May-15 20:25N 37°08' E 025°10'8 9.0
2015-May-15 19:33N 37°11' E 025°20'10 9.5
2015-May-15 18:33N 37°13' E 025°31'9 9.2
2015-May-15 17:34N 37°06' E 025°39'10 9.6
2015-May-15 16:29N 36°57' E 025°45'3 0.2
2015-May-14 22:34N 36°54' E 025°46'11 9.2
2015-May-14 21:23N 36°49' E 025°34'17 2.5
2015-May-14 14:32N 36°38' E 025°17'10 9.8
2015-May-14 13:33N 36°29' E 025°21'7 7.5
2015-May-14 12:33N 36°23' E 025°26'0 0.0
2015-May-14 11:33N 36°23' E 025°26'0 0.0
2015-May-14 10:33N 36°23' E 025°26'0 0.0
2015-May-14 09:33N 36°23' E 025°26'0 0.0
2015-May-14 08:33N 36°23' E 025°26'0 0.0
2015-May-14 07:33N 36°23' E 025°26'0 0.0
2015-May-14 06:33N 36°23' E 025°26'0 0.0
2015-May-14 05:33N 36°23' E 025°26'0 0.0
2015-May-14 04:33N 36°23' E 025°26'0 0.0
2015-May-14 03:33N 36°23' E 025°26'0 0.0
2015-May-14 02:27N 36°23' E 025°26'0 0.0
2015-May-14 01:33N 36°23' E 025°26'  

Dump ship's entire track history